Time;durP1;ratioP1;P1;durP2;ratioP2;P2;SDS_P1;SDS_P2;PMS_P1;PMS_P2;Temp;Humidity;BMP_temperature;BMP_pressure;BME280_temperature;BME280_humidity;BME280_pressure;Samples;Min_cycle;Max_cycle;Signal;HPM_P1;HPM_P2
2022/04/10 00:01:41;;;;;;;9.63;4.53;;;3.20;96.90;;;;;;4933378;29;20027;-82
2022/04/10 00:04:06;;;;;;;10.40;3.53;;;3.10;96.90;;;;;;4933562;29;20016;-82
2022/04/10 00:06:32;;;;;;;7.07;4.10;;;3.10;97.50;;;;;;4931697;29;20043;-82
2022/04/10 00:08:58;;;;;;;11.03;3.37;;;3.10;97.90;;;;;;4932667;29;20511;-82
2022/04/10 00:11:24;;;;;;;5.90;3.33;;;3.10;97.70;;;;;;4932136;29;20051;-82
2022/04/10 00:13:50;;;;;;;10.37;3.50;;;3.00;97.80;;;;;;4932969;29;20119;-82
2022/04/10 00:16:16;;;;;;;7.47;3.20;;;2.90;97.80;;;;;;4933170;29;20499;-82
2022/04/10 00:18:42;;;;;;;8.40;2.87;;;2.90;97.80;;;;;;4933613;29;20034;-82
2022/04/10 00:21:08;;;;;;;8.77;3.27;;;2.80;98.00;;;;;;4933269;29;20464;-82
2022/04/10 00:23:33;;;;;;;8.23;2.53;;;2.80;98.50;;;;;;4933094;29;20028;-82
2022/04/10 00:25:59;;;;;;;9.10;3.10;;;2.60;98.50;;;;;;4933133;29;20493;-82
2022/04/10 00:28:26;;;;;;;5.70;2.77;;;2.60;99.60;;;;;;4948764;23;20082;-79
2022/04/10 00:30:52;;;;;;;8.23;2.97;;;2.50;99.20;;;;;;4932931;29;20028;-80
2022/04/10 00:33:18;;;;;;;7.80;3.10;;;2.50;99.90;;;;;;4932647;29;20086;-80
2022/04/10 00:35:43;;;;;;;7.20;3.03;;;2.40;99.90;;;;;;4965517;28;20396;-80
2022/04/10 00:38:09;;;;;;;4.43;2.90;;;2.30;99.90;;;;;;4937099;28;20114;-80
2022/04/10 00:40:35;;;;;;;5.03;2.97;;;2.10;99.90;;;;;;4951102;28;20435;-80
2022/04/10 00:43:01;;;;;;;4.73;2.97;;;2.00;99.90;;;;;;4955083;28;20078;-80
2022/04/10 00:45:27;;;;;;;7.33;3.67;;;2.00;99.90;;;;;;4954886;28;20073;-80
2022/04/10 00:47:52;;;;;;;6.13;3.83;;;1.90;99.90;;;;;;4954406;28;20090;-80
2022/04/10 00:50:19;;;;;;;7.33;3.80;;;2.00;99.90;;;;;;4955372;28;20050;-80
2022/04/10 00:52:48;;;;;;;10.73;3.77;;;1.90;99.90;;;;;;4953246;28;20027;-80
2022/04/10 00:55:14;;;;;;;4.67;3.23;;;1.90;99.90;;;;;;4954067;29;20390;-80
2022/04/10 00:57:40;;;;;;;7.43;3.23;;;2.00;99.90;;;;;;4955190;28;20074;-80
2022/04/10 01:00:09;;;;;;;8.03;3.97;;;2.20;99.90;;;;;;4953484;28;20031;-80
2022/04/10 01:02:36;;;;;;;8.23;3.90;;;2.20;99.90;;;;;;4953659;29;20023;-80
2022/04/10 01:05:03;;;;;;;7.10;3.60;;;2.20;99.90;;;;;;4955303;28;20031;-80
2022/04/10 01:07:28;;;;;;;6.87;3.60;;;2.00;99.90;;;;;;4953384;28;20073;-80
2022/04/10 01:09:55;;;;;;;6.77;3.27;;;1.80;99.90;;;;;;4954142;28;20027;-80
2022/04/10 01:12:21;;;;;;;6.73;3.50;;;1.80;99.90;;;;;;4953779;28;20027;-80
2022/04/10 01:14:47;;;;;;;4.70;3.03;;;1.70;99.90;;;;;;4953739;29;20020;-80
2022/04/10 01:17:14;;;;;;;9.40;3.63;;;1.70;99.90;;;;;;4953539;28;20039;-80
2022/04/10 01:19:41;;;;;;;9.73;3.90;;;1.70;99.90;;;;;;4954639;28;20016;-80
2022/04/10 01:22:08;;;;;;;6.10;3.77;;;1.70;99.90;;;;;;4954798;28;20472;-79
2022/04/10 01:24:37;;;;;;;11.67;3.33;;;1.70;99.90;;;;;;4954694;28;20373;-80
2022/04/10 01:27:03;;;;;;;6.87;3.83;;;1.80;99.90;;;;;;4954830;28;20023;-80
2022/04/10 01:29:29;;;;;;;14.10;5.23;;;1.80;99.90;;;;;;4983919;23;20136;-82
2022/04/10 01:31:56;;;;;;;12.43;4.83;;;1.80;99.90;;;;;;4966002;28;20675;-82
2022/04/10 01:34:22;;;;;;;5.00;3.63;;;1.80;99.90;;;;;;4966473;28;20023;-82
2022/04/10 01:36:48;;;;;;;6.80;4.43;;;1.70;99.90;;;;;;4971431;28;20507;-82
2022/04/10 01:39:17;;;;;;;7.40;4.20;;;1.60;99.90;;;;;;4951108;28;20078;-82
2022/04/10 01:41:46;;;;;;;7.73;5.23;;;1.70;99.90;;;;;;4953404;28;20511;-82
2022/04/10 01:44:12;;;;;;;11.37;4.60;;;1.80;99.90;;;;;;4953793;28;20023;-82
2022/04/10 01:46:38;;;;;;;9.23;3.63;;;1.70;99.90;;;;;;4953404;29;20074;-82
2022/04/10 01:49:05;;;;;;;8.57;4.50;;;1.60;99.90;;;;;;4953020;28;20613;-82
2022/04/10 01:51:32;;;;;;;11.83;4.57;;;1.60;99.90;;;;;;4953514;28;20737;-82
2022/04/10 01:53:58;;;;;;;6.27;4.33;;;1.50;99.90;;;;;;4953557;28;20023;-82
2022/04/10 01:56:24;;;;;;;6.07;3.60;;;1.50;99.90;;;;;;4953437;28;20027;-82
2022/04/10 01:58:52;;;;;;;10.03;4.40;;;1.40;99.90;;;;;;4952560;28;20042;-82
2022/04/10 02:01:18;;;;;;;9.27;4.10;;;1.30;99.90;;;;;;4952533;29;20031;-82
2022/04/10 02:03:47;;;;;;;5.00;3.47;;;1.30;99.90;;;;;;4948844;29;20027;-82
2022/04/10 02:06:14;;;;;;;5.63;3.87;;;1.20;99.90;;;;;;4953189;28;20030;-82
2022/04/10 02:08:43;;;;;;;6.17;3.70;;;1.10;99.90;;;;;;4952218;28;20082;-82
2022/04/10 02:11:14;;;;;;;6.53;3.60;;;1.10;99.90;;;;;;4952045;29;20098;-82
2022/04/10 02:13:40;;;;;;;6.63;3.83;;;1.10;99.90;;;;;;4953011;29;20059;-82
2022/04/10 02:16:08;;;;;;;12.77;3.80;;;1.10;99.90;;;;;;4953382;28;20046;-82
2022/04/10 02:18:35;;;;;;;9.80;4.00;;;1.20;99.90;;;;;;4952525;28;20671;-82
2022/04/10 02:21:01;;;;;;;6.37;3.30;;;1.10;99.90;;;;;;4953225;29;20061;-82
2022/04/10 02:23:27;;;;;;;7.90;3.70;;;1.10;99.90;;;;;;4953308;29;20473;-82
2022/04/10 02:25:53;;;;;;;6.53;3.70;;;1.00;99.90;;;;;;4952801;29;20031;-82
2022/04/10 02:28:19;;;;;;;7.33;4.30;;;1.00;99.90;;;;;;4966478;23;20058;-80
2022/04/10 02:30:44;;;;;;;5.00;3.10;;;1.20;99.90;;;;;;4965196;28;20026;-79
2022/04/10 02:33:10;;;;;;;4.50;2.83;;;1.20;99.90;;;;;;4961005;28;20106;-79
2022/04/10 02:35:36;;;;;;;3.83;3.40;;;1.10;99.90;;;;;;4962110;28;20388;-79
2022/04/10 02:38:02;;;;;;;6.23;3.03;;;1.10;99.90;;;;;;4961844;28;20038;-79
2022/04/10 02:40:27;;;;;;;7.30;3.40;;;1.00;99.90;;;;;;4952791;29;20029;-80
2022/04/10 02:42:53;;;;;;;5.23;2.83;;;0.80;99.90;;;;;;4952436;28;20058;-79
2022/04/10 02:45:19;;;;;;;4.27;2.83;;;0.70;99.90;;;;;;4951277;29;20031;-79
2022/04/10 02:47:44;;;;;;;5.13;3.23;;;0.60;99.90;;;;;;4952573;28;20019;-79
2022/04/10 02:50:10;;;;;;;7.23;3.50;;;0.50;99.90;;;;;;4952232;28;20527;-80
2022/04/10 02:52:36;;;;;;;3.23;2.97;;;0.50;99.90;;;;;;4951838;28;20030;-79
2022/04/10 02:55:02;;;;;;;9.67;3.17;;;0.50;99.90;;;;;;4951585;29;20023;-80
2022/04/10 02:57:28;;;;;;;5.77;3.00;;;0.40;99.90;;;;;;4950873;29;20362;-79
2022/04/10 02:59:53;;;;;;;5.30;3.00;;;0.40;99.90;;;;;;4951830;28;20027;-80
2022/04/10 03:02:19;;;;;;;5.60;3.43;;;0.40;99.90;;;;;;4952291;28;20023;-80
2022/04/10 03:04:45;;;;;;;4.93;3.33;;;0.40;99.90;;;;;;4949784;28;20169;-79
2022/04/10 03:07:10;;;;;;;6.60;3.57;;;0.40;99.90;;;;;;4952015;29;20066;-80
2022/04/10 03:09:36;;;;;;;5.60;3.60;;;0.30;99.90;;;;;;4952423;28;20027;-80
2022/04/10 03:12:04;;;;;;;9.93;3.50;;;0.20;99.90;;;;;;4951069;29;20020;-79
2022/04/10 03:14:30;;;;;;;5.63;3.40;;;0.20;99.90;;;;;;4951447;28;20034;-80
2022/04/10 03:16:57;;;;;;;3.97;2.97;;;0.10;99.90;;;;;;4952051;28;20043;-80
2022/04/10 03:19:22;;;;;;;5.03;3.43;;;0.00;99.90;;;;;;4951850;28;20046;-80
2022/04/10 03:21:48;;;;;;;4.93;2.80;;;0.00;99.90;;;;;;4951096;29;20069;-79
2022/04/10 03:24:14;;;;;;;3.87;2.93;;;0.00;99.90;;;;;;4952034;28;20043;-79
2022/04/10 03:26:39;;;;;;;5.07;2.80;;;-0.10;99.90;;;;;;4951873;28;20035;-80
2022/04/10 03:29:05;;;;;;;5.13;3.10;;;-0.20;99.90;;;;;;4972820;23;20511;-81
2022/04/10 03:31:31;;;;;;;4.43;3.47;;;-0.30;99.90;;;;;;4952880;28;20117;-81
2022/04/10 03:33:57;;;;;;;11.97;3.73;;;-0.30;99.90;;;;;;4952458;28;20531;-81
2022/04/10 03:36:22;;;;;;;6.50;2.93;;;-0.40;99.90;;;;;;4952271;28;20077;-81
2022/04/10 03:38:48;;;;;;;6.57;3.33;;;-0.50;99.90;;;;;;4951057;28;20023;-81
2022/04/10 03:41:14;;;;;;;5.80;3.43;;;-0.50;99.90;;;;;;4952184;28;20027;-81
2022/04/10 03:43:39;;;;;;;6.03;3.30;;;-0.30;99.90;;;;;;4952344;28;20156;-81
2022/04/10 03:46:05;;;;;;;4.73;3.33;;;-0.10;99.90;;;;;;4952569;28;20024;-81
2022/04/10 03:48:31;;;;;;;6.80;4.00;;;0.00;99.90;;;;;;4952299;28;20388;-82
2022/04/10 03:50:57;;;;;;;8.43;3.57;;;0.00;99.90;;;;;;4952240;28;20155;-81
2022/04/10 03:53:22;;;;;;;10.47;3.20;;;-0.10;99.90;;;;;;4952448;28;20019;-81
2022/04/10 03:55:48;;;;;;;7.87;3.07;;;-0.10;99.90;;;;;;4951852;28;20443;-81
2022/04/10 03:58:14;;;;;;;6.33;3.80;;;-0.10;99.90;;;;;;4952094;28;20023;-81
2022/04/10 04:00:40;;;;;;;5.03;3.43;;;-0.10;99.90;;;;;;4952581;28;20022;-81
2022/04/10 04:03:07;;;;;;;6.87;3.27;;;-0.20;99.90;;;;;;4952249;28;20028;-82
2022/04/10 04:05:32;;;;;;;10.57;4.30;;;-0.30;99.90;;;;;;4952009;28;20024;-81
2022/04/10 04:07:58;;;;;;;9.27;4.03;;;-0.20;99.90;;;;;;4952646;28;20042;-81
2022/04/10 04:10:24;;;;;;;7.73;3.40;;;-0.20;99.90;;;;;;4952156;28;20421;-81
2022/04/10 04:12:50;;;;;;;6.20;2.70;;;-0.20;99.90;;;;;;4950335;28;20042;-81
2022/04/10 04:15:16;;;;;;;6.43;3.77;;;-0.30;99.90;;;;;;4953111;28;20031;-81
2022/04/10 04:17:41;;;;;;;5.50;3.23;;;-0.30;99.90;;;;;;4955540;28;20039;-81
2022/04/10 04:20:08;;;;;;;8.03;3.83;;;-0.20;99.90;;;;;;4955755;28;20031;-81
2022/04/10 04:22:35;;;;;;;5.77;3.20;;;-0.20;99.90;;;;;;4956109;28;20031;-81
2022/04/10 04:25:02;;;;;;;3.80;2.97;;;-0.20;99.90;;;;;;4955811;29;20662;-82
2022/04/10 04:27:28;;;;;;;6.00;3.40;;;-0.30;99.90;;;;;;4955159;28;20048;-81
2022/04/10 04:29:53;;;;;;;6.23;3.87;;;-0.30;99.90;;;;;;4955447;28;20046;-81
2022/04/10 04:32:19;;;;;;;7.23;3.13;;;-0.30;99.90;;;;;;4955735;28;20107;-82
2022/04/10 04:34:47;;;;;;;3.77;2.87;;;-0.40;99.90;;;;;;4954075;28;20023;-81
2022/04/10 04:37:13;;;;;;;8.07;3.40;;;-0.40;99.90;;;;;;4955471;28;20035;-82
2022/04/10 04:39:39;;;;;;;6.70;3.63;;;-0.40;99.90;;;;;;4955906;28;20070;-81
2022/04/10 04:42:05;;;;;;;7.50;3.50;;;-0.40;99.90;;;;;;4955221;28;20035;-80
2022/04/10 04:44:31;;;;;;;5.63;3.93;;;-0.60;99.90;;;;;;4954105;29;20031;-81
2022/04/10 04:46:57;;;;;;;5.57;3.23;;;-0.70;99.90;;;;;;4955629;28;20605;-81
2022/04/10 04:49:23;;;;;;;6.60;3.47;;;-0.70;99.90;;;;;;4955146;28;20034;-81
2022/04/10 04:51:49;;;;;;;5.53;3.67;;;-0.90;99.90;;;;;;4955132;28;20035;-81
2022/04/10 04:54:15;;;;;;;9.13;3.30;;;-0.90;99.90;;;;;;4955428;28;20107;-81
2022/04/10 04:56:40;;;;;;;9.33;3.37;;;-0.80;99.90;;;;;;4954597;28;20114;-81
2022/04/10 04:59:06;;;;;;;7.43;3.37;;;-0.70;99.90;;;;;;4976415;23;20567;-79
2022/04/10 05:01:32;;;;;;;7.67;3.40;;;-0.60;99.90;;;;;;4967216;28;20554;-80
2022/04/10 05:03:58;;;;;;;8.47;3.83;;;-0.50;99.90;;;;;;4963423;28;20461;-79
2022/04/10 05:06:25;;;;;;;9.63;3.80;;;-0.60;99.90;;;;;;4962881;28;20094;-79
2022/04/10 05:08:51;;;;;;;5.90;3.17;;;-0.70;99.90;;;;;;4958375;28;20023;-79
2022/04/10 05:11:17;;;;;;;9.07;4.37;;;-0.70;99.90;;;;;;4953818;28;20055;-79
2022/04/10 05:13:43;;;;;;;10.23;3.90;;;-0.90;99.90;;;;;;4954649;28;20027;-79
2022/04/10 05:16:09;;;;;;;5.93;3.83;;;-1.00;99.90;;;;;;4955310;28;20586;-79
2022/04/10 05:18:35;;;;;;;10.10;4.97;;;-1.00;99.90;;;;;;4954907;28;20035;-79
2022/04/10 05:21:01;;;;;;;7.10;4.33;;;-1.00;99.90;;;;;;4953594;29;20027;-80
2022/04/10 05:23:27;;;;;;;9.73;4.13;;;-0.90;99.90;;;;;;4955026;28;20023;-79
2022/04/10 05:25:53;;;;;;;7.57;3.77;;;-0.70;99.90;;;;;;4954801;28;20030;-79
2022/04/10 05:28:18;;;;;;;7.77;4.10;;;-0.60;99.90;;;;;;4953573;28;20027;-79
2022/04/10 05:30:44;;;;;;;6.43;3.97;;;-0.60;99.90;;;;;;4954997;28;20023;-79
2022/04/10 05:33:11;;;;;;;11.27;5.00;;;-0.60;99.90;;;;;;4953606;28;20023;-79
2022/04/10 05:35:37;;;;;;;10.27;4.83;;;-0.70;99.90;;;;;;4954512;28;20023;-79
2022/04/10 05:38:03;;;;;;;10.73;4.97;;;-0.70;99.90;;;;;;4953183;29;20046;-79
2022/04/10 05:40:29;;;;;;;13.37;4.73;;;-0.80;99.90;;;;;;4948022;29;20106;-79
2022/04/10 05:42:55;;;;;;;9.73;5.80;;;-0.80;99.90;;;;;;4953919;28;20127;-79
2022/04/10 05:45:20;;;;;;;14.63;7.13;;;-0.80;99.90;;;;;;4954150;28;20027;-79
2022/04/10 05:47:46;;;;;;;18.53;7.87;;;-0.70;99.90;;;;;;4954319;28;20070;-79
2022/04/10 05:50:13;;;;;;;18.87;7.83;;;-0.70;99.90;;;;;;4954378;28;20031;-80
2022/04/10 05:52:39;;;;;;;14.77;6.33;;;-0.50;99.90;;;;;;4954352;28;20031;-79
2022/04/10 05:55:06;;;;;;;12.47;5.03;;;-0.50;99.90;;;;;;4954057;28;20046;-79
2022/04/10 05:57:31;;;;;;;8.93;4.63;;;-0.50;99.90;;;;;;4953684;28;20035;-79
2022/04/10 05:59:57;;;;;;;9.43;5.20;;;-0.50;99.90;;;;;;4953616;28;20041;-79
2022/04/10 06:02:23;;;;;;;9.00;4.80;;;-0.50;99.90;;;;;;4954160;28;20499;-79
2022/04/10 06:04:48;;;;;;;7.17;4.80;;;-0.50;99.90;;;;;;4954109;28;20192;-79
2022/04/10 06:07:14;;;;;;;11.23;4.97;;;-0.40;99.90;;;;;;4953915;28;20035;-79
2022/04/10 06:09:40;;;;;;;13.07;5.50;;;-0.30;99.90;;;;;;4953640;28;20023;-79
2022/04/10 06:12:06;;;;;;;10.80;5.73;;;-0.30;99.90;;;;;;4952644;28;20376;-78
2022/04/10 06:14:32;;;;;;;9.67;5.43;;;-0.30;99.90;;;;;;4953958;28;20031;-79
2022/04/10 06:16:58;;;;;;;13.00;6.20;;;-0.20;99.90;;;;;;4953830;28;20035;-79
2022/04/10 06:19:23;;;;;;;10.10;5.93;;;0.00;99.90;;;;;;4952144;29;20049;-79
2022/04/10 06:21:49;;;;;;;9.30;5.73;;;0.00;99.90;;;;;;4952224;29;20050;-79
2022/04/10 06:24:15;;;;;;;8.23;4.93;;;0.10;99.90;;;;;;4953895;28;20488;-79
2022/04/10 06:26:41;;;;;;;6.20;4.87;;;0.20;99.90;;;;;;4953376;28;20034;-79
2022/04/10 06:29:07;;;;;;;10.90;5.33;;;0.30;99.90;;;;;;4982707;23;20427;-81
2022/04/10 06:31:32;;;;;;;9.07;5.00;;;0.50;99.90;;;;;;4964823;28;20660;-81
2022/04/10 06:33:58;;;;;;;11.50;5.53;;;0.60;99.90;;;;;;4962237;28;20024;-80
2022/04/10 06:36:24;;;;;;;14.33;5.83;;;0.60;99.90;;;;;;4961913;28;20059;-81
2022/04/10 06:38:50;;;;;;;14.27;5.87;;;0.70;99.90;;;;;;4950973;28;20087;-81
2022/04/10 06:41:16;;;;;;;16.83;6.70;;;0.70;99.90;;;;;;4941322;29;20020;-81
2022/04/10 06:43:42;;;;;;;17.47;7.20;;;0.80;99.90;;;;;;4941327;29;20028;-80
2022/04/10 06:46:08;;;;;;;19.00;7.57;;;0.90;99.90;;;;;;4944997;29;20034;-81
2022/04/10 06:48:38;;;;;;;19.40;8.60;;;0.90;99.90;;;;;;4942362;28;20060;-81
2022/04/10 06:51:03;;;;;;;17.97;8.17;;;1.10;99.90;;;;;;4941652;29;20377;-81
2022/04/10 06:53:29;;;;;;;22.00;9.83;;;1.20;99.90;;;;;;4941057;29;20024;-82
2022/04/10 06:55:55;;;;;;;18.30;7.97;;;1.40;99.90;;;;;;4937830;29;20043;-81
2022/04/10 06:58:22;;;;;;;16.70;8.53;;;1.50;99.90;;;;;;4940215;29;20035;-82
2022/04/10 07:00:49;;;;;;;11.90;8.10;;;1.50;99.90;;;;;;4939067;29;20114;-82
2022/04/10 07:03:15;;;;;;;22.47;9.40;;;1.70;99.90;;;;;;4934664;29;20031;-83
2022/04/10 07:05:41;;;;;;;24.23;9.40;;;1.90;99.90;;;;;;4940226;29;20030;-82
2022/04/10 07:08:07;;;;;;;18.70;8.50;;;2.00;99.90;;;;;;4940964;29;20036;-82
2022/04/10 07:10:36;;;;;;;19.03;8.47;;;2.20;99.90;;;;;;4935453;29;20047;-82
2022/04/10 07:13:03;;;;;;;17.17;8.90;;;2.30;99.90;;;;;;4939266;29;20395;-82
2022/04/10 07:15:29;;;;;;;16.77;7.47;;;2.50;99.90;;;;;;4941383;29;20480;-82
2022/04/10 07:17:56;;;;;;;15.53;7.40;;;2.60;99.90;;;;;;4938457;28;20059;-83
2022/04/10 07:20:22;;;;;;;16.53;7.53;;;2.80;99.90;;;;;;4938455;29;20031;-82
2022/04/10 07:25:32;;;;;;;22.40;8.43;;;3.10;99.90;;;;;;4938753;29;20070;-82
2022/04/10 07:27:58;;;;;;;17.60;8.93;;;3.30;99.40;;;;;;4940529;28;20031;-82
2022/04/10 07:30:24;;;;;;;16.00;7.60;;;3.50;98.80;;;;;;4940799;28;20055;-85
2022/04/10 07:32:51;;;;;;;13.40;6.97;;;3.60;98.50;;;;;;4942037;28;20042;-79
2022/04/10 07:35:17;;;;;;;11.50;5.43;;;3.80;98.50;;;;;;4940421;28;20020;-84
2022/04/10 07:37:42;;;;;;;11.43;5.37;;;3.90;98.40;;;;;;4936804;28;20063;-84
2022/04/10 07:40:09;;;;;;;17.83;6.70;;;4.10;98.30;;;;;;4942554;29;20023;-85
2022/04/10 07:42:39;;;;;;;16.03;5.77;;;4.20;97.20;;;;;;4941437;28;20102;-84
2022/04/10 07:45:06;;;;;;;12.97;6.00;;;4.40;96.90;;;;;;4939000;29;20059;-84
2022/04/10 07:47:32;;;;;;;10.17;5.40;;;4.60;97.20;;;;;;4938841;28;20027;-84
2022/04/10 07:49:58;;;;;;;10.43;4.67;;;4.80;96.70;;;;;;4939067;29;20103;-84
2022/04/10 07:52:24;;;;;;;10.00;4.87;;;5.00;95.30;;;;;;4942850;29;20026;-84
2022/04/10 07:54:52;;;;;;;11.88;4.18;;;5.30;95.70;;;;;;4939182;29;20035;-84
2022/04/10 07:57:18;;;;;;;11.80;4.50;;;5.40;95.00;;;;;;4942638;29;20031;-84
2022/04/10 07:59:44;;;;;;;8.52;4.13;;;5.60;95.30;;;;;;4982869;23;20047;-83
2022/04/10 08:02:11;;;;;;;7.30;4.28;;;5.80;95.20;;;;;;4960436;28;20082;-84
2022/04/10 08:04:37;;;;;;;9.35;4.80;;;6.00;93.80;;;;;;4966376;28;20018;-83
2022/04/10 08:07:03;;;;;;;8.73;4.13;;;6.20;94.40;;;;;;4963895;28;20035;-85
2022/04/10 08:09:29;;;;;;;8.93;4.00;;;6.40;94.20;;;;;;4963315;28;20567;-83
2022/04/10 08:11:55;;;;;;;9.47;4.23;;;6.60;92.80;;;;;;4947799;28;20038;-84
2022/04/10 08:14:20;;;;;;;6.40;3.70;;;6.90;91.80;;;;;;4955911;28;20069;-84
2022/04/10 08:16:46;;;;;;;5.53;4.30;;;7.00;91.50;;;;;;4954625;28;20044;-83
2022/04/10 08:19:13;;;;;;;6.55;4.00;;;7.20;91.40;;;;;;4956537;28;20497;-83
2022/04/10 08:21:39;;;;;;;10.02;4.13;;;7.50;92.00;;;;;;4948823;28;20075;-84
2022/04/10 08:24:05;;;;;;;10.68;3.70;;;7.70;90.10;;;;;;4955600;28;20030;-83
2022/04/10 08:26:32;;;;;;;6.22;3.90;;;7.90;90.00;;;;;;4954806;28;20389;-85
2022/04/10 08:28:58;;;;;;;11.57;4.28;;;8.10;91.50;;;;;;4955249;28;20064;-83
2022/04/10 08:31:24;;;;;;;10.82;4.88;;;8.30;91.10;;;;;;4962945;28;20063;-84
2022/04/10 08:33:51;;;;;;;4.80;4.03;;;8.60;90.60;;;;;;4954821;28;20062;-84
2022/04/10 08:36:17;;;;;;;7.28;4.70;;;8.80;90.10;;;;;;4956237;28;20505;-84
2022/04/10 08:38:42;;;;;;;11.35;4.93;;;8.90;89.50;;;;;;4956007;28;20027;-83
2022/04/10 08:41:09;;;;;;;12.32;3.92;;;9.00;89.80;;;;;;4954161;28;20109;-83
2022/04/10 08:43:36;;;;;;;11.15;3.78;;;9.30;89.70;;;;;;4951583;28;20062;-84
2022/04/10 08:46:03;;;;;;;6.38;3.88;;;9.50;89.60;;;;;;4955187;28;20418;-83
2022/04/10 08:48:30;;;;;;;8.52;3.80;;;9.80;90.30;;;;;;4955881;28;20038;-83
2022/04/10 08:50:57;;;;;;;8.10;3.38;;;10.20;86.40;;;;;;4955593;28;20028;-84
2022/04/10 08:53:24;;;;;;;10.52;2.70;;;10.90;86.20;;;;;;4955936;28;20046;-84
2022/04/10 08:55:50;;;;;;;7.25;3.20;;;11.80;78.90;;;;;;4954973;28;20408;-83
2022/04/10 09:00:30;;;;;;;4.25;2.60;;;12.50;79.90;;;;;;5063521;28;20402;-83
2022/04/10 09:02:56;;;;;;;9.65;3.80;;;12.70;80.40;;;;;;5068654;28;20093;-80
2022/04/10 09:05:24;;;;;;;9.55;1.92;;;13.00;77.10;;;;;;5068668;28;20362;-82
2022/04/10 09:08:08;;;;;;;7.25;1.83;;;12.60;73.70;;;;;;5073464;28;20406;-81
2022/04/10 09:10:53;;;;;;;7.68;1.75;;;12.10;73.90;;;;;;5055096;28;20416;-82
2022/04/10 09:13:29;;;;;;;5.95;1.92;;;12.20;77.70;;;;;;5045664;28;20112;-80
2022/04/10 09:16:12;;;;;;;8.43;1.92;;;12.40;73.30;;;;;;5048035;28;20025;-83
2022/04/10 09:18:48;;;;;;;7.65;2.17;;;12.50;74.60;;;;;;5046734;28;20043;-84
2022/04/10 09:21:15;;;;;;;3.10;1.73;;;12.50;70.80;;;;;;5047771;28;20025;-81
2022/04/10 09:23:45;;;;;;;9.07;2.17;;;12.60;71.50;;;;;;5048307;28;20032;-84
2022/04/10 09:26:13;;;;;;;6.50;2.03;;;12.70;72.50;;;;;;5047488;28;20025;-82
2022/04/10 09:28:42;;;;;;;8.60;1.75;;;12.80;73.30;;;;;;5047877;28;20028;-80
2022/04/10 09:31:29;;;;;;;5.95;1.70;;;13.50;72.40;;;;;;5047128;28;20025;-80
2022/04/10 09:33:56;;;;;;;4.70;1.90;;;14.40;61.70;;;;;;5047757;28;20354;-80
2022/04/10 09:36:34;;;;;;;9.57;1.77;;;15.00;62.50;;;;;;5048173;28;20025;-82
2022/04/10 09:39:02;;;;;;;5.82;1.80;;;15.80;58.60;;;;;;5047404;28;20052;-81
2022/04/10 09:41:28;;;;;;;5.32;1.48;;;15.60;57.00;;;;;;5043357;28;20478;-89
2022/04/10 09:43:58;;;;;;;6.22;1.45;;;15.70;55.90;;;;;;5053753;28;20151;-80
2022/04/10 09:46:24;;;;;;;7.57;1.80;;;15.80;55.20;;;;;;5047694;28;20033;-85
2022/04/10 09:48:50;;;;;;;9.38;1.33;;;16.10;51.50;;;;;;5047367;28;20156;-79
2022/04/10 09:51:16;;;;;;;5.35;1.85;;;15.60;55.50;;;;;;5046998;28;20013;-80
2022/04/10 09:54:01;;;;;;;6.10;1.20;;;15.90;56.70;;;;;;5046694;28;20067;-78
2022/04/10 09:56:28;;;;;;;4.75;1.40;;;17.50;51.40;;;;;;5043408;28;20021;-77
2022/04/10 09:58:57;;;;;;;3.47;1.17;;;18.50;47.00;;;;;;5016409;22;20044;-76
2022/04/10 10:01:25;;;;;;;2.75;1.27;;;18.60;45.10;;;;;;4925931;28;20384;-76
2022/04/10 10:03:51;;;;;;;6.53;1.25;;;19.10;45.60;;;;;;4925035;28;20043;-77
2022/04/10 10:06:19;;;;;;;6.53;2.13;;;19.20;42.10;;;;;;4927092;28;20028;-75
2022/04/10 10:08:45;;;;;;;1.50;0.88;;;18.20;42.70;;;;;;4932706;28;20028;-76
2022/04/10 10:11:12;;;;;;;4.30;1.50;;;18.70;45.10;;;;;;4934756;28;20141;-76
2022/04/10 10:13:38;;;;;;;5.05;1.50;;;17.30;47.90;;;;;;4931084;28;20369;-76
2022/04/10 10:16:05;;;;;;;8.07;1.45;;;16.80;49.00;;;;;;4931374;28;20035;-76
2022/04/10 10:18:31;;;;;;;3.35;1.00;;;16.10;50.10;;;;;;4932703;28;20117;-76
2022/04/10 10:20:57;;;;;;;5.18;1.30;;;16.70;51.60;;;;;;4932685;28;20024;-77
2022/04/10 10:23:25;;;;;;;5.75;1.10;;;16.60;51.60;;;;;;4933071;28;20023;-76
2022/04/10 10:26:06;;;;;;;4.38;1.48;;;17.90;51.70;;;;;;4932646;28;20015;-75
2022/04/10 10:28:56;;;;;;;5.28;1.20;;;17.80;48.90;;;;;;4931022;28;20027;-76
2022/04/10 10:31:43;;;;;;;4.32;1.30;;;18.50;47.60;;;;;;4933142;28;20069;-77
2022/04/10 10:34:10;;;;;;;4.43;1.20;;;19.60;45.40;;;;;;4931500;28;20039;-76
2022/04/10 10:36:36;;;;;;;3.25;1.13;;;19.00;47.00;;;;;;4930844;28;20043;-76
2022/04/10 10:39:05;;;;;;;5.55;1.25;;;20.40;44.10;;;;;;4932611;28;20028;-77
2022/04/10 10:41:33;;;;;;;4.15;1.25;;;20.20;42.00;;;;;;4925869;28;20487;-77
2022/04/10 10:44:17;;;;;;;4.22;1.13;;;19.80;40.70;;;;;;4931632;28;20656;-77
2022/04/10 10:47:00;;;;;;;2.78;1.20;;;18.90;45.30;;;;;;4932246;28;20024;-77
2022/04/10 10:49:47;;;;;;;8.30;1.33;;;20.30;45.90;;;;;;4932789;28;20066;-77
2022/04/10 10:52:14;;;;;;;6.93;1.10;;;21.80;41.40;;;;;;4930980;28;20489;-78
2022/04/10 10:54:44;;;;;;;6.10;1.13;;;22.90;37.10;;;;;;4931555;28;20525;-77
2022/04/10 10:57:42;;;;;;;6.47;1.33;;;24.00;38.30;;;;;;4931963;28;20049;-77
2022/04/10 11:00:17;;;;;;;5.60;1.58;;;22.70;37.50;;;;;;4971441;23;20066;-82
2022/04/10 11:02:52;;;;;;;5.68;1.15;;;22.80;37.00;;;;;;4955386;28;20472;-83
2022/04/10 11:05:31;;;;;;;4.18;0.95;;;23.00;35.70;;;;;;4954921;28;20031;-83
2022/04/10 11:08:06;;;;;;;6.78;1.55;;;23.10;38.20;;;;;;4955342;28;20019;-82
2022/04/10 11:10:52;;;;;;;3.72;1.05;;;24.30;35.30;;;;;;4953219;29;20035;-83
2022/04/10 11:13:19;;;;;;;5.32;1.30;;;23.30;34.40;;;;;;4946238;28;20477;-82
2022/04/10 11:15:52;;;;;;;6.72;1.23;;;23.90;36.40;;;;;;4935914;29;20055;-80
2022/04/10 11:18:23;;;;;;;3.88;1.25;;;23.20;35.10;;;;;;4935566;29;20027;-78
2022/04/10 11:20:55;;;;;;;5.85;1.10;;;23.40;35.80;;;;;;4935581;29;20053;-80
2022/04/10 11:23:27;;;;;;;3.90;1.05;;;23.60;33.50;;;;;;4941008;29;20028;-80
2022/04/10 11:25:53;;;;;;;2.55;1.13;;;23.60;37.90;;;;;;4935118;29;20502;-79
2022/04/10 11:28:19;;;;;;;7.05;1.30;;;24.00;35.70;;;;;;4934794;29;20036;-79
2022/04/10 11:30:48;;;;;;;5.10;0.93;;;24.50;31.80;;;;;;4935220;29;20012;-81
2022/04/10 11:33:14;;;;;;;6.47;1.42;;;23.80;33.80;;;;;;4935327;29;20032;-78
2022/04/10 11:35:42;;;;;;;5.13;1.20;;;24.00;32.30;;;;;;4934892;29;20032;-82
2022/04/10 11:38:15;;;;;;;2.88;0.80;;;23.20;34.60;;;;;;4934638;29;20035;-81
2022/04/10 11:40:50;;;;;;;7.25;0.77;;;24.20;33.30;;;;;;4935154;29;20799;-81
2022/04/10 11:43:18;;;;;;;6.43;1.30;;;21.50;34.20;;;;;;4930101;29;20050;-81
2022/04/10 11:45:45;;;;;;;5.25;1.17;;;19.80;43.80;;;;;;4935276;29;20042;-81
2022/04/10 11:48:11;;;;;;;7.30;0.90;;;21.10;37.50;;;;;;4934839;29;20074;-81
2022/04/10 11:50:38;;;;;;;4.25;1.05;;;22.60;37.30;;;;;;4934772;29;20024;-82
2022/04/10 11:53:07;;;;;;;5.30;1.52;;;22.30;33.80;;;;;;4934809;29;20022;-81
2022/04/10 11:55:40;;;;;;;2.35;0.77;;;22.50;38.90;;;;;;4935148;29;20024;-82
2022/04/10 12:01:04;;;;;;;6.25;0.90;;;22.70;35.50;;;;;;5008362;28;20049;-80
2022/04/10 12:03:31;;;;;;;2.45;0.85;;;22.30;35.90;;;;;;5005607;28;20018;-79
2022/04/10 12:05:57;;;;;;;9.18;1.50;;;22.50;33.90;;;;;;5010676;28;20025;-79
2022/04/10 12:08:23;;;;;;;3.50;1.10;;;20.70;35.60;;;;;;5009442;28;20726;-79
2022/04/10 12:11:00;;;;;;;6.40;1.75;;;22.10;36.30;;;;;;4992562;28;20117;-80
2022/04/10 12:13:37;;;;;;;3.97;1.23;;;22.40;36.40;;;;;;4996790;28;20018;-79
2022/04/10 12:16:16;;;;;;;3.83;1.15;;;22.30;36.50;;;;;;4992347;28;20029;-79
2022/04/10 12:18:51;;;;;;;3.90;1.33;;;22.20;34.90;;;;;;4992255;28;20023;-79
2022/04/10 12:21:18;;;;;;;2.58;1.20;;;23.30;32.00;;;;;;4991807;28;20038;-79
2022/04/10 12:23:48;;;;;;;4.15;1.05;;;23.50;32.50;;;;;;4990869;28;20018;-79
2022/04/10 12:26:14;;;;;;;6.80;1.25;;;22.40;32.40;;;;;;4992290;28;20026;-79
2022/04/10 12:28:42;;;;;;;3.67;1.00;;;20.90;34.20;;;;;;4992055;28;20029;-78
2022/04/10 12:31:08;;;;;;;6.70;1.00;;;21.00;38.40;;;;;;4992097;28;20061;-78
2022/04/10 12:33:35;;;;;;;2.15;1.10;;;20.80;34.60;;;;;;4992119;28;20019;-79
2022/04/10 12:36:19;;;;;;;2.72;0.85;;;21.70;35.90;;;;;;4992400;28;20029;-79
2022/04/10 12:38:45;;;;;;;4.25;1.00;;;24.20;33.80;;;;;;4991869;28;20110;-78
2022/04/10 12:41:11;;;;;;;7.32;1.10;;;23.50;29.10;;;;;;4992078;28;20037;-78
2022/04/10 12:43:36;;;;;;;9.18;1.38;;;24.90;28.90;;;;;;4991484;28;20026;-78
2022/04/10 12:46:10;;;;;;;6.03;1.17;;;26.60;30.10;;;;;;4991812;28;20538;-79
2022/04/10 12:48:37;;;;;;;4.57;1.02;;;24.70;27.40;;;;;;4991796;28;20010;-79
2022/04/10 12:51:14;;;;;;;5.18;1.42;;;23.40;27.00;;;;;;4992025;28;20378;-79
2022/04/10 12:53:47;;;;;;;5.45;0.98;;;23.10;29.30;;;;;;4993137;28;20034;-79
2022/04/10 12:56:20;;;;;;;3.53;0.85;;;24.30;29.00;;;;;;4991723;28;20030;-79
2022/04/10 12:58:48;;;;;;;5.00;0.70;;;23.60;24.90;;;;;;5010099;23;20134;-80
2022/04/10 13:01:29;;;;;;;4.35;1.00;;;21.90;29.00;;;;;;4972813;28;20101;-80